Time;durP1;ratioP1;P1;durP2;ratioP2;P2;SDS_P1;SDS_P2;PMS_P1;PMS_P2;Temp;Humidity;BMP_temperature;BMP_pressure;BME280_temperature;BME280_humidity;BME280_pressure;Samples;Min_cycle;Max_cycle;Signal;HPM_P1;HPM_P2
2022/04/16 00:01:30;;;;;;;9.27;6.73;;;;;;;14.26;50.68;94784.44;5014508;28;20447;-76
2022/04/16 00:03:56;;;;;;;5.70;5.10;;;;;;;14.19;51.34;94786.06;5014622;28;20474;-76
2022/04/16 00:06:23;;;;;;;7.57;6.00;;;;;;;14.14;51.10;94788.31;4963425;28;20438;-76
2022/04/16 00:08:50;;;;;;;15.40;6.20;;;;;;;14.12;50.82;94789.44;5014337;28;20447;-76
2022/04/16 00:11:17;;;;;;;6.03;5.53;;;;;;;14.14;51.12;94790.94;5013766;28;20444;-77
2022/04/16 00:13:46;;;;;;;9.53;5.13;;;;;;;14.17;51.22;94792.47;5013944;28;20448;-77
2022/04/16 00:16:17;;;;;;;5.80;5.30;;;;;;;14.20;51.03;94790.34;5013999;28;20444;-76
2022/04/16 00:18:44;;;;;;;8.30;5.67;;;;;;;14.25;50.91;94796.00;4962680;28;20447;-76
2022/04/16 00:21:12;;;;;;;6.40;5.80;;;;;;;14.23;50.64;94789.22;5014409;28;20447;-76
2022/04/16 00:23:40;;;;;;;6.93;5.53;;;;;;;14.22;50.93;94783.09;5013940;28;20450;-76
2022/04/16 00:26:08;;;;;;;12.13;5.93;;;;;;;14.19;50.75;94793.16;5013845;28;20447;-76
2022/04/16 00:28:35;;;;;;;6.70;5.60;;;;;;;14.13;51.23;94783.19;5013817;28;20458;-76
2022/04/16 00:31:02;;;;;;;7.10;5.20;;;;;;;14.03;50.91;94782.47;5013439;28;20559;-77
2022/04/16 00:33:31;;;;;;;5.93;5.33;;;;;;;13.90;51.47;94781.06;5013686;28;20451;-77
2022/04/16 00:35:58;;;;;;;9.77;5.20;;;;;;;13.80;51.28;94777.66;5013685;28;20450;-77
2022/04/16 00:38:25;;;;;;;5.60;5.10;;;;;;;13.77;51.62;94787.69;5013480;28;20459;-76
2022/04/16 00:40:52;;;;;;;15.50;5.37;;;;;;;13.75;51.62;94790.47;5013870;28;20452;-77
2022/04/16 00:43:23;;;;;;;5.90;5.07;;;;;;;13.62;51.36;94780.34;5004469;28;20472;-77
2022/04/16 00:45:50;;;;;;;6.07;5.40;;;;;;;13.69;51.68;94785.81;4993750;28;20473;-76
2022/04/16 00:48:17;;;;;;;7.90;5.77;;;;;;;13.74;51.83;94778.28;4943544;28;20456;-77
2022/04/16 00:50:48;;;;;;;8.47;5.90;;;;;;;13.77;51.61;94777.16;4994269;28;20484;-77
2022/04/16 00:53:16;;;;;;;6.70;5.60;;;;;;;13.80;51.41;94776.84;4994091;28;20452;-77
2022/04/16 00:55:43;;;;;;;8.37;6.73;;;;;;;13.76;51.84;94760.50;4993974;28;20499;-77
2022/04/16 00:58:10;;;;;;;7.97;6.00;;;;;;;13.75;52.25;94765.91;4994017;28;20445;-77
2022/04/16 01:00:38;;;;;;;9.57;6.07;;;;;;;13.71;52.29;94767.22;4943856;28;20789;-76
2022/04/16 01:03:06;;;;;;;8.73;6.57;;;;;;;13.74;51.58;94775.66;4993681;28;20452;-76
2022/04/16 01:05:33;;;;;;;7.47;6.70;;;;;;;13.80;51.49;94763.66;4994007;28;20450;-76
2022/04/16 01:08:02;;;;;;;6.73;5.83;;;;;;;13.71;52.86;94769.84;4993879;28;20479;-77
2022/04/16 01:10:31;;;;;;;10.23;6.40;;;;;;;13.69;53.03;94759.47;4994201;28;20488;-77
2022/04/16 01:12:59;;;;;;;6.80;6.10;;;;;;;13.26;54.77;94763.66;4993706;28;20499;-76
2022/04/16 01:15:27;;;;;;;9.67;6.50;;;;;;;13.10;54.80;94763.47;4993953;28;20470;-77
2022/04/16 01:17:54;;;;;;;9.47;6.77;;;;;;;13.14;54.71;94764.00;4993462;28;20452;-76
2022/04/16 01:20:22;;;;;;;8.60;6.50;;;;;;;13.12;55.63;94755.41;4993639;28;20460;-77
2022/04/16 01:22:51;;;;;;;14.23;6.63;;;;;;;12.74;56.33;94754.69;4994097;28;20451;-76
2022/04/16 01:25:18;;;;;;;8.60;7.00;;;;;;;12.66;55.79;94746.66;4993671;28;20448;-76
2022/04/16 01:27:46;;;;;;;8.53;6.93;;;;;;;12.68;56.71;94752.59;4993845;28;20448;-76
2022/04/16 01:30:14;;;;;;;8.07;7.07;;;;;;;12.74;56.46;94759.94;4946042;28;20919;-76
2022/04/16 01:32:41;;;;;;;9.50;6.20;;;;;;;12.87;55.63;94760.41;4997915;28;20444;-77
2022/04/16 01:35:09;;;;;;;6.97;6.27;;;;;;;12.99;55.31;94767.13;4946751;28;20441;-77
2022/04/16 01:37:37;;;;;;;8.20;7.43;;;;;;;13.11;54.74;94769.56;4997293;28;20783;-77
2022/04/16 01:40:08;;;;;;;7.10;6.40;;;;;;;13.20;55.15;94768.69;4997280;28;20777;-77
2022/04/16 01:42:35;;;;;;;9.07;6.40;;;;;;;13.28;54.75;94776.69;4979482;28;20519;-76
2022/04/16 01:45:02;;;;;;;7.77;6.37;;;;;;;13.37;54.49;94780.25;4996877;28;20495;-77
2022/04/16 01:47:30;;;;;;;7.73;6.67;;;;;;;13.42;54.26;94773.53;4997000;28;20855;-77
2022/04/16 01:49:57;;;;;;;6.87;6.27;;;;;;;13.46;54.27;94774.91;4997406;28;20507;-77
2022/04/16 01:52:24;;;;;;;10.23;7.50;;;;;;;13.42;54.39;94778.81;4997358;28;20542;-77
2022/04/16 01:54:52;;;;;;;7.47;6.73;;;;;;;13.31;55.00;94781.69;4996945;28;20462;-77
2022/04/16 01:57:20;;;;;;;11.50;8.27;;;;;;;13.26;54.45;94779.47;4996918;28;20807;-77
2022/04/16 01:59:48;;;;;;;8.37;7.53;;;;;;;13.16;54.76;94770.78;4996674;28;20456;-77
2022/04/16 02:02:16;;;;;;;9.30;6.97;;;;;;;13.08;55.48;94775.13;4996975;28;20452;-77
2022/04/16 02:04:43;;;;;;;13.10;7.40;;;;;;;12.95;55.38;94773.66;4997094;28;20451;-76
2022/04/16 02:07:09;;;;;;;7.87;7.07;;;;;;;12.84;56.37;94768.63;4996727;28;20456;-77
2022/04/16 02:09:36;;;;;;;7.53;6.30;;;;;;;12.80;56.54;94776.94;4996523;28;20491;-77
2022/04/16 02:12:04;;;;;;;7.30;6.47;;;;;;;12.80;56.56;94779.59;4946332;28;20448;-76
2022/04/16 02:14:32;;;;;;;7.47;6.03;;;;;;;12.82;56.15;94785.53;4978623;28;20444;-76
2022/04/16 02:16:59;;;;;;;7.73;6.00;;;;;;;12.74;56.29;94773.09;4996333;28;21150;-77
2022/04/16 02:19:26;;;;;;;8.43;6.90;;;;;;;12.71;56.76;94773.38;4996641;28;20456;-76
2022/04/16 02:21:54;;;;;;;8.30;6.10;;;;;;;12.72;56.09;94775.03;4996822;28;20459;-77
2022/04/16 02:24:21;;;;;;;6.70;6.00;;;;;;;12.66;56.34;94767.72;4996714;28;20444;-76
2022/04/16 02:26:48;;;;;;;8.50;7.00;;;;;;;12.64;57.49;94769.66;4996752;28;20444;-76
2022/04/16 02:29:15;;;;;;;9.97;7.40;;;;;;;12.60;57.42;94765.69;4996290;28;20453;-77
2022/04/16 02:31:45;;;;;;;7.70;6.90;;;;;;;12.55;57.00;94774.00;4978239;28;20488;-76
2022/04/16 02:34:12;;;;;;;12.00;7.60;;;;;;;12.58;57.20;94767.63;4996058;28;20464;-76
2022/04/16 02:36:40;;;;;;;10.60;7.33;;;;;;;12.56;57.24;94770.41;4996548;28;20445;-77
2022/04/16 02:39:08;;;;;;;9.50;7.30;;;;;;;12.54;56.99;94768.91;4996152;28;20868;-77
2022/04/16 02:41:35;;;;;;;10.13;6.20;;;;;;;12.44;58.20;94776.00;4995555;28;20797;-76
2022/04/16 02:44:02;;;;;;;9.20;6.50;;;;;;;12.34;57.71;94771.59;4996068;28;20463;-76
2022/04/16 02:49:15;;;;;;;6.57;5.97;;;;;;;12.10;59.19;94769.44;4996092;28;20798;-77
2022/04/16 02:51:42;;;;;;;11.27;8.07;;;;;;;12.06;58.71;94775.13;4996262;28;21022;-76
2022/04/16 02:54:09;;;;;;;8.47;7.10;;;;;;;12.05;58.67;94769.03;4961462;28;20447;-76
2022/04/16 02:56:35;;;;;;;8.70;6.40;;;;;;;12.05;58.29;94765.56;4996109;28;20611;-76
2022/04/16 02:59:02;;;;;;;8.80;6.30;;;;;;;12.05;59.03;94768.22;4945533;28;20457;-77
2022/04/16 03:01:29;;;;;;;9.93;6.17;;;;;;;12.01;58.57;94774.72;4995683;28;20455;-76
2022/04/16 03:03:56;;;;;;;6.93;6.17;;;;;;;11.98;58.99;94772.38;4995758;28;20448;-76
2022/04/16 03:06:24;;;;;;;8.63;6.20;;;;;;;11.96;58.44;94777.78;4995392;28;20452;-76
2022/04/16 03:08:51;;;;;;;7.00;6.10;;;;;;;11.94;58.82;94773.63;4999881;28;21220;-76
2022/04/16 03:11:18;;;;;;;13.13;6.40;;;;;;;11.88;58.77;94771.56;5014502;28;20494;-77
2022/04/16 03:13:45;;;;;;;9.23;6.63;;;;;;;11.84;59.40;94770.19;5015249;28;20455;-75
2022/04/16 03:18:56;;;;;;;7.40;5.70;;;;;;;12.07;60.58;94768.91;5014984;28;20490;-77
2022/04/16 03:21:24;;;;;;;7.70;5.97;;;;;;;12.06;58.92;94781.22;4964701;28;20448;-77
2022/04/16 03:23:51;;;;;;;8.17;6.57;;;;;;;12.03;57.57;94785.94;4980950;28;20448;-77
2022/04/16 03:26:18;;;;;;;9.07;6.53;;;;;;;11.97;58.58;94779.44;5015307;28;20439;-77
2022/04/16 03:28:45;;;;;;;10.37;5.70;;;;;;;11.88;58.58;94779.47;5015356;28;20982;-78
2022/04/16 03:31:11;;;;;;;7.13;5.80;;;;;;;11.81;58.40;94787.06;5014793;28;20480;-78
2022/04/16 03:33:38;;;;;;;8.80;6.23;;;;;;;11.77;58.71;94789.13;5014978;28;20458;-77
2022/04/16 03:36:05;;;;;;;9.90;6.53;;;;;;;11.71;58.63;94797.56;5015188;28;20522;-79
2022/04/16 03:38:33;;;;;;;11.40;6.83;;;;;;;11.75;58.09;94795.47;5014785;28;20458;-77
2022/04/16 03:41:00;;;;;;;6.97;6.10;;;;;;;11.71;59.47;94799.38;5014999;28;20471;-78
2022/04/16 03:43:29;;;;;;;6.37;5.50;;;;;;;11.71;59.15;94797.56;5014943;28;20462;-77
2022/04/16 03:45:56;;;;;;;6.27;5.67;;;;;;;11.70;58.23;94797.72;5014474;28;21014;-78
2022/04/16 03:48:23;;;;;;;6.33;5.70;;;;;;;11.70;58.91;94801.16;5014662;28;20514;-77
2022/04/16 03:50:50;;;;;;;16.57;6.53;;;;;;;11.75;59.18;94806.00;5014672;28;20490;-78
2022/04/16 03:53:17;;;;;;;7.80;6.50;;;;;;;11.73;59.28;94807.94;4963495;28;20534;-77
2022/04/16 04:01:14;;;;;;;8.40;6.50;;;;;;;11.71;58.65;94820.38;5014557;28;20918;-78
2022/04/16 04:03:41;;;;;;;8.50;5.87;;;;;;;11.67;60.16;94821.63;5014765;28;20910;-78
2022/04/16 04:06:08;;;;;;;6.70;6.10;;;;;;;11.70;59.78;94827.44;4979850;28;21217;-78
2022/04/16 04:08:35;;;;;;;7.13;6.27;;;;;;;11.82;59.77;94829.94;5014923;28;20444;-78
2022/04/16 04:11:04;;;;;;;8.37;6.93;;;;;;;11.96;59.61;94832.19;5014426;28;20810;-77
2022/04/16 04:13:31;;;;;;;9.80;7.00;;;;;;;12.14;58.01;94835.75;5014086;28;20514;-79
2022/04/16 04:15:58;;;;;;;13.67;6.60;;;;;;;12.23;56.83;94834.91;5014510;28;20546;-78
2022/04/16 04:18:26;;;;;;;10.40;6.47;;;;;;;12.31;56.67;94824.50;4963765;28;20451;-78
2022/04/16 04:20:53;;;;;;;12.57;6.60;;;;;;;12.50;55.81;94831.53;5014078;28;20455;-78
2022/04/16 04:23:20;;;;;;;12.00;6.70;;;;;;;12.85;56.08;94830.00;5014136;28;20547;-77
2022/04/16 04:25:47;;;;;;;9.37;6.73;;;;;;;13.17;54.17;94829.56;5009016;28;20507;-77
2022/04/16 04:28:15;;;;;;;10.83;5.80;;;;;;;13.47;53.62;94837.19;5003400;28;20776;-78
2022/04/16 04:30:42;;;;;;;7.17;5.87;;;;;;;13.80;52.48;94834.88;4994749;28;20492;-78
2022/04/16 04:33:09;;;;;;;8.23;6.33;;;;;;;14.21;51.13;94842.16;4994607;28;20445;-78
2022/04/16 04:35:36;;;;;;;13.03;10.23;;;;;;;14.42;50.30;94835.69;4997140;28;20466;-78
2022/04/16 04:38:03;;;;;;;17.23;11.67;;;;;;;14.69;49.91;94832.91;4994754;28;20436;-77
2022/04/16 04:40:30;;;;;;;18.43;9.90;;;;;;;14.97;49.03;94835.38;4994279;28;20444;-77
2022/04/16 04:42:57;;;;;;;12.80;9.03;;;;;;;15.14;49.33;94845.03;4994572;28;20444;-78
2022/04/16 04:45:25;;;;;;;16.10;9.17;;;;;;;15.40;48.84;94850.25;4994264;28;20476;-77
2022/04/16 04:47:52;;;;;;;15.37;10.57;;;;;;;15.28;49.08;94848.88;4994191;28;20444;-77
2022/04/16 04:50:19;;;;;;;36.30;12.07;;;;;;;14.92;49.47;94858.81;4960543;28;20444;-78
2022/04/16 04:52:45;;;;;;;19.90;9.20;;;;;;;14.29;51.08;94859.84;4994062;28;20945;-78
2022/04/16 04:55:13;;;;;;;14.53;9.50;;;;;;;14.04;52.50;94866.75;4994889;28;20455;-78
2022/04/16 04:57:41;;;;;;;13.00;10.00;;;;;;;14.11;52.05;94864.31;4994456;28;20448;-77
2022/04/16 05:00:10;;;;;;;23.07;10.83;;;;;;;14.37;52.00;94864.38;4994842;28;20464;-77
2022/04/16 05:02:46;;;;;;;14.03;9.50;;;;;;;14.77;51.57;94862.03;4944287;28;20462;-78
2022/04/16 05:05:14;;;;;;;13.27;9.10;;;;;;;15.07;50.08;94867.81;4997079;28;20487;-78
2022/04/16 05:07:40;;;;;;;17.57;8.10;;;;;;;15.24;50.50;94864.25;4998507;28;20490;-78
2022/04/16 05:10:08;;;;;;;10.83;8.90;;;;;;;15.32;49.56;94860.78;4998677;28;20444;-78
2022/04/16 05:12:35;;;;;;;10.90;8.20;;;;;;;15.10;49.86;94851.63;4998025;28;21190;-78
2022/04/16 05:15:03;;;;;;;20.90;10.10;;;;;;;14.98;49.85;94863.44;4963583;28;20432;-78
2022/04/16 05:17:31;;;;;;;12.53;10.13;;;;;;;14.90;50.71;94855.50;4997857;28;20464;-77
2022/04/16 05:19:59;;;;;;;12.17;8.70;;;;;;;15.06;51.08;94856.41;4998533;28;20463;-78
2022/04/16 05:22:26;;;;;;;18.50;9.93;;;;;;;14.97;51.00;94852.06;4997764;28;20453;-77
2022/04/16 05:24:53;;;;;;;14.77;9.93;;;;;;;15.11;51.30;94855.94;4997970;28;20436;-77
2022/04/16 05:27:20;;;;;;;14.37;10.53;;;;;;;15.09;50.97;94842.06;4998011;28;20457;-77
2022/04/16 05:29:56;;;;;;;16.30;10.77;;;;;;;15.31;50.79;94848.56;4998150;28;20802;-77
2022/04/16 05:32:24;;;;;;;27.83;12.13;;;;;;;15.62;49.56;94846.25;4997557;28;20578;-78
2022/04/16 05:34:54;;;;;;;18.90;10.93;;;;;;;15.92;48.97;94842.16;4997759;28;20939;-78
2022/04/16 05:37:29;;;;;;;17.33;10.13;;;;;;;16.34;47.92;94840.16;4997477;28;21182;-77
2022/04/16 05:39:55;;;;;;;14.50;9.20;;;;;;;16.59;46.48;94843.63;4997464;28;20527;-78
2022/04/16 05:42:22;;;;;;;12.50;10.87;;;;;;;16.83;45.93;94848.09;4997324;28;20543;-78
2022/04/16 05:44:49;;;;;;;10.73;9.63;;;;;;;17.12;45.96;94841.38;4997153;28;20494;-78
2022/04/16 05:47:16;;;;;;;21.17;10.13;;;;;;;17.62;45.40;94835.66;4946947;28;20456;-77
2022/04/16 05:49:43;;;;;;;11.23;9.57;;;;;;;17.86;44.33;94843.53;4997194;28;20448;-78
2022/04/16 05:52:10;;;;;;;12.53;9.70;;;;;;;18.14;43.30;94841.16;4997635;28;21006;-79
2022/04/16 05:54:39;;;;;;;11.47;8.50;;;;;;;18.24;43.04;94838.28;4997299;28;20459;-78
2022/04/16 05:57:08;;;;;;;16.57;10.33;;;;;;;18.43;46.70;94837.78;4997113;28;20444;-78
2022/04/16 05:59:35;;;;;;;13.27;8.57;;;;;;;18.79;44.24;94831.81;4962977;28;20432;-77
2022/04/16 06:02:02;;;;;;;11.73;8.80;;;;;;;19.15;41.76;94827.47;4947212;28;20444;-77
2022/04/16 06:04:29;;;;;;;8.80;7.53;;;;;;;19.50;40.88;94830.38;4996484;28;20480;-78
2022/04/16 06:06:56;;;;;;;9.10;7.10;;;;;;;19.87;39.66;94836.53;4997401;28;20455;-78
2022/04/16 06:09:23;;;;;;;9.67;7.40;;;;;;;20.30;38.26;94829.41;4996773;28;20451;-78
2022/04/16 06:11:52;;;;;;;10.07;6.70;;;;;;;20.62;37.32;94825.41;4962470;28;20488;-78
2022/04/16 06:14:19;;;;;;;12.00;6.30;;;;;;;20.71;37.28;94824.25;4996377;28;20844;-78
2022/04/16 06:16:46;;;;;;;9.30;7.07;;;;;;;20.72;37.04;94831.22;4995672;28;20448;-77
2022/04/16 06:19:13;;;;;;;12.83;7.10;;;;;;;20.72;36.39;94820.56;4962633;28;20492;-78
2022/04/16 06:21:40;;;;;;;11.43;6.97;;;;;;;20.79;36.21;94824.09;4996911;28;20448;-77
2022/04/16 06:24:06;;;;;;;15.07;8.10;;;;;;;20.82;36.04;94830.91;4997249;28;20440;-77
2022/04/16 06:26:33;;;;;;;15.67;7.40;;;;;;;20.81;35.68;94824.72;4996694;28;20897;-77
2022/04/16 06:29:01;;;;;;;15.20;7.70;;;;;;;21.03;35.99;94820.16;4996721;28;20900;-78
2022/04/16 06:31:28;;;;;;;7.03;6.33;;;;;;;21.26;35.58;94820.72;4995969;28;20496;-77
2022/04/16 06:33:55;;;;;;;13.90;7.63;;;;;;;21.38;35.02;94820.97;4996742;28;20444;-77
2022/04/16 06:36:22;;;;;;;15.50;8.40;;;;;;;21.39;35.02;94811.94;4996294;28;20444;-78
2022/04/16 06:38:49;;;;;;;10.97;8.53;;;;;;;21.51;35.27;94815.72;4962631;28;20456;-77
2022/04/16 06:41:15;;;;;;;25.73;8.50;;;;;;;21.60;34.92;94813.69;4996659;28;20449;-78
2022/04/16 06:43:42;;;;;;;17.27;8.70;;;;;;;21.68;35.06;94810.84;4996366;28;20463;-78
2022/04/16 06:46:11;;;;;;;13.57;9.00;;;;;;;21.83;32.85;94805.34;4977720;28;20472;-77
2022/04/16 06:48:38;;;;;;;11.30;8.03;;;;;;;21.85;31.18;94808.66;4946536;28;20458;-78
2022/04/16 06:51:05;;;;;;;9.30;7.20;;;;;;;21.61;30.26;94805.47;4996120;28;20488;-78
2022/04/16 06:53:32;;;;;;;13.00;8.20;;;;;;;21.37;30.84;94808.66;4996355;28;20436;-78
2022/04/16 06:56:00;;;;;;;14.37;6.93;;;;;;;21.13;31.16;94807.28;4996431;28;20449;-78
2022/04/16 06:58:28;;;;;;;8.70;6.13;;;;;;;20.98;31.31;94795.91;4996376;28;20551;-78
2022/04/16 07:00:55;;;;;;;12.83;6.03;;;;;;;20.71;31.85;94789.56;4996429;28;20503;-78
2022/04/16 07:03:23;;;;;;;8.00;7.20;;;;;;;20.61;32.57;94797.09;4961781;28;20452;-78
2022/04/16 07:05:50;;;;;;;15.97;6.33;;;;;;;20.54;32.94;94789.06;4995936;28;20447;-77
2022/04/16 07:08:17;;;;;;;10.77;6.60;;;;;;;20.39;32.82;94798.94;4995922;28;20444;-77
2022/04/16 07:10:44;;;;;;;10.90;7.30;;;;;;;20.30;33.42;94800.91;4996162;28;20452;-77
2022/04/16 07:13:11;;;;;;;9.90;7.60;;;;;;;20.11;35.39;94796.22;4995997;28;20850;-77
2022/04/16 07:15:38;;;;;;;11.80;6.60;;;;;;;19.99;33.45;94803.09;4995514;28;20445;-77
2022/04/16 07:18:07;;;;;;;9.37;6.63;;;;;;;19.70;33.86;94794.19;4995669;28;20939;-77
2022/04/16 07:20:35;;;;;;;20.40;6.67;;;;;;;19.95;34.69;94793.81;4996167;28;20883;-78
2022/04/16 07:23:02;;;;;;;10.77;6.93;;;;;;;20.16;34.00;94795.66;4996215;28;20444;-77
2022/04/16 07:25:29;;;;;;;11.13;7.33;;;;;;;20.04;33.86;94788.19;4995565;28;20827;-78
2022/04/16 07:27:56;;;;;;;9.50;7.23;;;;;;;20.33;34.68;94787.22;4995993;28;20451;-78
2022/04/16 07:30:23;;;;;;;9.13;6.73;;;;;;;20.45;33.58;94776.03;4945585;28;20455;-76
2022/04/16 07:32:51;;;;;;;10.13;7.07;;;;;;;20.55;34.87;94776.56;4995646;28;20488;-77
2022/04/16 07:35:18;;;;;;;9.23;7.53;;;;;;;20.48;33.51;94767.66;4995683;28;20444;-78
2022/04/16 07:37:47;;;;;;;11.53;7.73;;;;;;;20.40;33.58;94773.97;4995417;28;20437;-79
2022/04/16 07:40:14;;;;;;;6.73;6.00;;;;;;;20.46;33.22;94777.69;4995864;28;20428;-79
2022/04/16 07:46:02;;;;;;;8.27;7.47;;;;;;;20.22;33.84;94774.38;4980225;28;20515;-79
2022/04/16 07:48:29;;;;;;;18.13;9.43;;;;;;;20.30;33.76;94766.28;4991378;28;20455;-78
2022/04/16 07:50:56;;;;;;;15.50;8.03;;;;;;;20.24;34.03;94763.53;4995033;28;21101;-78
2022/04/16 07:53:24;;;;;;;19.83;8.47;;;;;;;20.12;34.56;94768.56;4995193;28;20476;-78
2022/04/16 08:02:34;;;;;;;11.73;6.80;;;;;;;19.83;33.99;94756.22;4994032;28;20530;-78
2022/04/16 08:05:01;;;;;;;8.27;7.20;;;;;;;19.88;34.39;94760.97;4990724;28;20475;-77
2022/04/16 08:07:28;;;;;;;9.63;6.80;;;;;;;19.80;35.01;94749.44;4978643;28;20434;-78
2022/04/16 08:09:56;;;;;;;13.33;8.33;;;;;;;19.83;34.60;94756.22;4993796;28;20452;-78
2022/04/16 08:12:25;;;;;;;10.43;7.10;;;;;;;19.94;39.48;94755.69;4994438;28;20486;-78
2022/04/16 08:14:52;;;;;;;10.77;6.80;;;;;;;20.02;34.72;94760.09;4995041;28;20502;-78
2022/04/16 08:17:19;;;;;;;23.40;13.10;;;;;;;20.25;35.18;94760.72;4994887;28;20500;-78
2022/04/16 08:19:46;;;;;;;15.17;8.43;;;;;;;20.43;35.21;94746.91;4986384;28;20449;-78
2022/04/16 08:22:17;;;;;;;10.10;7.60;;;;;;;20.22;34.08;94750.41;4987194;28;20451;-77
2022/04/16 08:24:54;;;;;;;31.93;18.53;;;;;;;20.31;35.90;94751.94;4994418;28;20440;-77
2022/04/16 08:27:22;;;;;;;23.03;13.60;;;;;;;20.28;40.37;94749.66;4933973;28;20434;-78
2022/04/16 08:29:49;;;;;;;33.67;16.87;;;;;;;20.30;34.43;94752.94;4977174;28;20777;-78
2022/04/16 08:32:16;;;;;;;15.33;9.97;;;;;;;20.26;34.41;94750.88;4983140;28;20489;-78
2022/04/16 08:34:43;;;;;;;9.83;8.03;;;;;;;20.17;35.42;94752.81;4985539;28;20927;-77
2022/04/16 08:37:10;;;;;;;15.40;10.50;;;;;;;20.02;34.98;94750.25;4974867;28;20785;-78
2022/04/16 08:39:37;;;;;;;19.20;9.67;;;;;;;20.14;34.95;94747.06;4975594;28;20461;-78
2022/04/16 08:42:04;;;;;;;13.60;7.57;;;;;;;20.23;35.56;94740.56;4986084;28;20448;-78
2022/04/16 08:44:33;;;;;;;11.40;8.17;;;;;;;20.36;34.08;94740.69;4984540;28;20932;-77
2022/04/16 08:47:01;;;;;;;10.70;6.80;;;;;;;20.35;34.44;94739.03;4974574;28;20464;-77
2022/04/16 08:49:29;;;;;;;9.23;6.80;;;;;;;20.22;34.94;94744.25;4982449;28;20452;-78
2022/04/16 08:51:57;;;;;;;14.07;7.90;;;;;;;20.08;34.75;94728.16;4981783;28;20508;-78
2022/04/16 08:54:25;;;;;;;18.43;7.17;;;;;;;20.09;34.91;94739.66;4981808;28;20444;-78
2022/04/16 08:56:51;;;;;;;12.07;7.30;;;;;;;20.13;35.32;94727.59;4984386;28;20442;-78
2022/04/16 08:59:18;;;;;;;12.13;8.00;;;;;;;20.23;35.35;94727.25;4966763;28;20444;-77
2022/04/16 09:01:46;;;;;;;9.67;7.27;;;;;;;20.33;34.36;94733.91;4975206;28;20449;-78
2022/04/16 09:04:20;;;;;;;14.20;6.80;;;;;;;20.25;34.04;94730.56;4974093;28;20457;-78
2022/04/16 09:06:56;;;;;;;18.70;7.00;;;;;;;20.33;34.64;94722.44;4973988;28;20457;-77
2022/04/16 09:09:23;;;;;;;14.13;7.33;;;;;;;20.24;33.79;94721.75;4974398;28;20476;-77
2022/04/16 09:11:50;;;;;;;14.13;7.23;;;;;;;20.33;34.41;94719.75;4974242;28;20492;-77
2022/04/16 09:14:22;;;;;;;8.23;6.37;;;;;;;20.33;33.06;94722.44;4974441;28;20453;-77
2022/04/16 09:16:57;;;;;;;13.43;8.10;;;;;;;20.49;33.32;94718.66;4993528;28;20448;-77
2022/04/16 09:19:30;;;;;;;11.45;6.30;;;;;;;20.84;32.41;94714.16;4992471;28;20465;-77
2022/04/16 09:21:58;;;;;;;11.50;6.57;;;;;;;21.05;32.90;94711.38;4993520;28;20205;-77
2022/04/16 09:24:25;;;;;;;10.00;7.00;;;;;;;21.02;31.87;94703.78;4992980;28;20842;-78
2022/04/16 09:26:53;;;;;;;9.37;6.53;;;;;;;21.14;32.79;94704.03;4993208;28;20452;-77
2022/04/16 09:29:20;;;;;;;12.87;6.70;;;;;;;21.10;32.62;94692.09;4983182;28;20537;-77
2022/04/16 09:31:49;;;;;;;6.20;5.60;;;;;;;21.21;33.22;94694.22;4973142;28;20969;-76
2022/04/16 09:34:19;;;;;;;10.93;7.17;;;;;;;21.26;32.31;94689.94;4973131;28;20949;-77
2022/04/16 09:36:48;;;;;;;8.40;6.60;;;;;;;21.32;32.08;94681.13;4972987;28;20449;-76
2022/04/16 09:39:16;;;;;;;16.40;6.40;;;;;;;21.44;32.33;94681.38;4973584;28;20851;-77
2022/04/16 09:41:44;;;;;;;8.27;6.40;;;;;;;21.24;32.23;94680.50;4973306;28;20456;-76
2022/04/16 09:44:21;;;;;;;9.07;6.63;;;;;;;21.32;31.82;94689.13;4973596;28;20461;-76
2022/04/16 09:46:49;;;;;;;7.70;6.03;;;;;;;21.40;31.93;94688.16;4953599;28;20450;-76
2022/04/16 09:49:18;;;;;;;10.20;6.57;;;;;;;21.22;32.54;94685.19;4954127;28;20458;-76
2022/04/16 09:51:46;;;;;;;8.43;7.40;;;;;;;21.29;32.84;94684.19;4957164;28;20460;-77
2022/04/16 09:54:14;;;;;;;9.70;6.43;;;;;;;21.30;32.40;94690.38;4958001;28;20545;-77
2022/04/16 09:56:44;;;;;;;9.43;6.93;;;;;;;21.34;32.42;94691.59;4957106;28;20447;-77
2022/04/16 10:19:16;;;;;;;;;;;;;;;21.69;32.44;94646.91;5110632;27;19966;-79
2022/04/16 10:21:43;;;;;;;;;;;;;;;21.84;32.26;94660.88;5111601;28;19969;-79
2022/04/16 10:24:10;;;;;;;;;;;;;;;22.04;32.85;94657.44;5111780;28;19924;-79
2022/04/16 10:26:42;;;;;;;;;;;;;;;22.09;31.52;94657.63;5111135;28;19943;-79
2022/04/16 10:29:10;;;;;;;;;;;;;;;22.04;31.67;94652.09;5093246;28;19930;-78
2022/04/16 10:31:48;;;;;;;;;;;;;;;22.08;31.91;94648.78;5090880;28;19946;-79
2022/04/16 10:34:19;;;;;;;;;;;;;;;22.16;32.22;94643.22;5090944;28;19932;-79
2022/04/16 10:36:52;;;;;;;;;;;;;;;22.25;32.04;94646.50;5090845;28;20019;-78
2022/04/16 10:39:19;;;;;;;;;;;;;;;22.29;30.93;94641.59;5091061;28;19925;-77
2022/04/16 10:41:55;;;;;;;;;;;;;;;22.24;31.70;94645.69;5091324;28;19931;-77
2022/04/16 10:44:23;;;;;;;;;;;;;;;22.05;31.49;94635.84;5090774;28;19929;-79
2022/04/16 10:46:50;;;;;;;;;;;;;;;21.93;31.78;94635.59;5090663;28;19931;-77
2022/04/16 10:49:20;;;;;;;;;;;;;;;22.15;32.02;94630.06;5090662;28;19931;-81
2022/04/16 10:51:47;;;;;;;;;;;;;;;22.24;31.55;94634.16;5091047;28;20137;-80
2022/04/16 10:54:14;;;;;;;;;;;;;;;21.92;31.79;94630.47;5090846;28;20381;-77
2022/04/16 10:56:45;;;;;;;;;;;;;;;22.08;32.61;94626.59;5091092;28;19931;-78
2022/04/16 10:59:11;;;;;;;;;;;;;;;21.63;32.82;94627.16;5090832;28;19925;-77
2022/04/16 11:01:38;;;;;;;;;;;;;;;21.59;32.27;94631.28;5090297;28;19925;-80
2022/04/16 11:04:13;;;;;;;;;;;;;;;21.49;32.38;94628.19;5090613;28;20359;-77
2022/04/16 11:06:43;;;;;;;;;;;;;;;21.42;32.47;94630.03;5090130;28;19928;-78
2022/04/16 11:09:12;;;;;;;;;;;;;;;21.54;33.26;94624.91;5072468;28;19924;-78
2022/04/16 11:11:39;;;;;;;;;;;;;;;21.72;32.56;94627.00;5070073;28;19925;-79
2022/04/16 11:14:05;;;;;;;;;;;;;;;21.90;32.63;94621.84;5070482;28;19925;-78
2022/04/16 11:16:32;;;;;;;;;;;;;;;21.88;32.61;94618.56;5070027;28;19979;-79
2022/04/16 11:18:58;;;;;;;;;;;;;;;22.05;36.70;94619.81;5061388;28;20304;-79
2022/04/16 11:21:29;;;;;;;;;;;;;;;21.72;32.54;94619.81;5022202;28;20394;-78
2022/04/16 11:24:04;;;;;;;;;;;;;;;21.45;33.36;94610.94;5056756;28;19954;-78
2022/04/16 11:34:43;;;;;;;;;;;;;;;21.48;33.13;94609.72;5056268;28;19932;-78
2022/04/16 11:37:09;;;;;;;;;;;;;;;21.52;33.52;94606.44;5056541;28;19932;-78
2022/04/16 11:39:37;;;;;;;;;;;;;;;21.67;35.18;94600.88;5056167;28;20379;-78
2022/04/16 11:42:06;;;;;;;;;;;;;;;21.90;33.58;94595.13;5056384;28;19940;-79
2022/04/16 11:44:42;;;;;;;;;;;;;;;21.94;32.85;94593.66;5056293;28;19978;-78
2022/04/16 11:47:09;;;;;;;;;;;;;;;22.09;34.66;94583.63;5056206;28;19925;-79
2022/04/16 11:49:37;;;;;;;;;;;;;;;22.15;33.24;94588.13;5056165;28;19947;-81
2022/04/16 11:52:04;;;;;;;;;;;;;;;22.16;33.16;94579.09;5055885;28;19925;-77
2022/04/16 11:54:30;;;;;;;;;;;;;;;21.89;33.13;94588.94;5056328;28;20011;-78
2022/04/16 11:56:59;;;;;;;;;;;;;;;21.90;33.05;94574.56;5055852;28;19935;-78
2022/04/16 11:59:26;;;;;;;;;;;;;;;21.94;33.48;94577.63;5056058;28;19931;-77
2022/04/16 12:02:14;;;;;;;;;;;;;;;21.90;33.16;94568.41;5055891;28;19925;-78
2022/04/16 12:04:41;;;;;;;;;;;;;;;21.89;33.32;94572.09;4994522;28;19926;-79
2022/04/16 12:07:11;;;;;;;;;;;;;;;22.11;32.95;94576.22;4995198;28;19929;-78
2022/04/16 12:09:38;;;;;;;;;;;;;;;22.02;33.58;94564.09;4981374;28;19926;-78
2022/04/16 12:12:06;;;;;;;;;;;;;;;21.98;33.45;94562.88;5013949;28;19925;-85
2022/04/16 12:14:33;;;;;;;;;;;;;;;22.16;33.42;94564.91;5014113;28;20025;-78
2022/04/16 12:17:00;;;;;;;;;;;;;;;22.25;33.83;94550.25;5013848;28;20353;-79
2022/04/16 12:19:30;;;;;;;;;;;;;;;22.30;33.19;94553.16;5014003;28;19925;-78
2022/04/16 12:21:57;;;;;;;;;;;;;;;22.20;32.47;94556.25;5013983;28;19932;-78
2022/04/16 12:24:27;;;;;;;;;;;;;;;22.13;33.04;94552.78;5013469;28;19965;-78
2022/04/16 12:26:53;;;;;;;;;;;;;;;22.00;33.66;94544.78;5013699;28;20530;-78
2022/04/16 12:29:27;;;;;;;;;;;;;;;21.94;33.70;94542.91;5010912;28;19932;-78
2022/04/16 12:31:58;;;;;;;;;;;;;;;22.10;33.27;94539.03;5013185;28;19932;-78
2022/04/16 12:34:25;;;;;;;;;;;;;;;22.26;33.12;94541.22;5013923;28;20383;-78